Aplington, Iowa
Current Conditions -  °F | °C
As of 1:35 PM on Monday 20 Oct 2014 (Local Time) from KIFA Reporting Station
Clear Clear  
Wind Chill: 68°   Ceiling: Unl
Heat Index: 68°   Visibility: 10mi
Dew Point: 40°   Wind: 17mph
Humidity: 36%   Direction: 330°NNW
Pressure: 30"   Gusts: 22mph
Location:  42.58°N, 92.88°W
Report Text: KIFA 201835Z AUTO 33015G19KT 10SM CLR 20/04 A3000 RMK AO2 T02000044
Loading
Personal Weather Stations






























Interactive Weather Map
Tropical Storm Tracking
New forecast layout! Learn more

10-Day Weather Forecast

Advertisements
Track Severe Weather on mobile